createdAt,value
2022-09-29T00:02:20.511Z,97075.78
2022-09-29T00:05:23.486Z,97057.56
2022-09-29T00:08:28.115Z,97071.81
2022-09-29T00:11:30.949Z,97064.50
2022-09-29T00:14:33.441Z,97060.81
2022-09-29T00:17:36.381Z,97066.78
2022-09-29T00:20:39.161Z,97069.38
2022-09-29T00:23:42.239Z,97069.78
2022-09-29T00:26:46.760Z,97065.03
2022-09-29T00:29:49.766Z,97060.44
2022-09-29T00:32:52.339Z,97060.44
2022-09-29T00:36:03.732Z,97054.81
2022-09-29T00:39:06.255Z,97057.41
2022-09-29T00:42:12.166Z,97057.31
2022-09-29T00:45:20.555Z,97058.06
2022-09-29T00:48:29.960Z,97047.50
2022-09-29T00:51:33.715Z,97047.28
2022-09-29T00:54:47.415Z,97052.47
2022-09-29T00:57:54.576Z,97039.97
2022-09-29T01:00:58.104Z,97043.50
2022-09-29T01:04:15.725Z,97038.78
2022-09-29T01:07:20.159Z,97046.09
2022-09-29T01:10:23.630Z,97047.84
2022-09-29T01:13:26.565Z,97034.38
2022-09-29T01:16:33.509Z,97034.56
2022-09-29T01:20:05.213Z,97042.66
2022-09-29T01:23:32.299Z,97033.50
2022-09-29T01:26:56.722Z,97045.03
2022-09-29T01:30:10.562Z,97044.16
2022-09-29T01:33:56.062Z,97039.53
2022-09-29T01:37:19.109Z,97041.34
2022-09-29T01:40:40.945Z,97029.63
2022-09-29T01:43:46.928Z,97030.81
2022-09-29T01:46:54.201Z,97021.94
2022-09-29T01:50:16.409Z,97033.19
2022-09-29T01:53:22.350Z,97039.13
2022-09-29T01:56:29.145Z,97029.09
2022-09-29T01:59:38.055Z,97027.47
2022-09-29T02:02:49.704Z,97037.81
2022-09-29T02:05:55.902Z,97037.81
2022-09-29T02:09:03.034Z,97037.91
2022-09-29T02:12:07.275Z,97028.44
2022-09-29T02:15:13.141Z,97029.53
2022-09-29T02:18:23.003Z,97022.94
2022-09-29T02:21:26.940Z,97029.53
2022-09-29T02:24:29.771Z,97019.94
2022-09-29T02:27:33.877Z,97023.34
2022-09-29T02:30:37.053Z,97019.34
2022-09-29T02:33:39.620Z,97018.47
2022-09-29T02:36:45.497Z,97006.41
2022-09-29T02:40:21.647Z,97019.13
2022-09-29T02:43:48.320Z,97024.72
2022-09-29T02:47:25.115Z,96956.78
2022-09-29T02:50:43.452Z,97024.81
2022-09-29T02:54:13.206Z,97031.28
2022-09-29T02:57:42.377Z,97024.16
2022-09-29T03:00:45.324Z,97009.81
2022-09-29T03:03:48.313Z,97033.09
2022-09-29T03:06:51.424Z,97031.69
2022-09-29T03:09:54.969Z,97040.53
2022-09-29T03:12:57.499Z,97038.47
2022-09-29T03:16:00.459Z,97041.72
2022-09-29T03:19:05.369Z,97040.34
2022-09-29T03:22:08.133Z,97039.25
2022-09-29T03:25:11.990Z,97053.63
2022-09-29T03:28:16.599Z,97056.19
2022-09-29T03:31:19.847Z,97044.22
2022-09-29T03:34:22.858Z,97039.59
2022-09-29T03:37:25.531Z,97040.69
2022-09-29T03:40:29.061Z,97027.94
2022-09-29T03:43:31.748Z,97046.69
2022-09-29T03:46:34.821Z,97044.88
2022-09-29T03:49:37.535Z,97048.44
2022-09-29T03:52:40.437Z,97051.03
2022-09-29T03:55:47.140Z,97046.81
2022-09-29T03:58:50.363Z,97042.38
2022-09-29T04:01:52.922Z,97042.47
2022-09-29T04:04:55.762Z,97045.19
2022-09-29T04:07:58.248Z,97047.12
2022-09-29T04:11:01.104Z,97047.88
2022-09-29T04:14:04.215Z,97039.13
2022-09-29T04:17:07.143Z,97033.75
2022-09-29T04:20:09.939Z,97031.06
2022-09-29T04:23:13.495Z,97025.78
2022-09-29T04:26:16.791Z,97019.78
2022-09-29T04:29:19.630Z,97019.78
2022-09-29T04:32:22.238Z,97016.00
2022-09-29T04:35:25.008Z,97016.94
2022-09-29T04:38:27.813Z,97012.22
2022-09-29T04:41:33.548Z,97003.28
2022-09-29T04:44:36.009Z,97009.75
2022-09-29T04:47:38.757Z,97016.28
2022-09-29T04:50:41.221Z,97017.28
2022-09-29T04:53:44.027Z,97015.53
2022-09-29T04:56:49.205Z,97024.50
2022-09-29T04:59:52.041Z,96968.22
2022-09-29T05:02:54.788Z,97018.22
2022-09-29T05:05:58.249Z,97018.34
2022-09-29T05:09:00.956Z,97017.00
2022-09-29T05:12:04.247Z,97012.00
2022-09-29T05:15:07.436Z,97007.94
2022-09-29T05:18:10.249Z,97003.53
2022-09-29T05:21:29.354Z,97002.78
2022-09-29T05:24:32.483Z,97004.47
2022-09-29T05:27:38.160Z,96989.78
2022-09-29T05:30:42.676Z,97007.78
2022-09-29T05:33:45.380Z,96997.66
2022-09-29T05:36:48.414Z,97003.88
2022-09-29T05:39:51.042Z,97023.09
2022-09-29T05:42:54.053Z,97032.31
2022-09-29T05:46:01.262Z,97026.59
2022-09-29T05:49:04.321Z,97016.47
2022-09-29T05:52:06.897Z,97023.34
2022-09-29T05:55:10.638Z,97028.72
2022-09-29T05:58:13.207Z,97026.03
2022-09-29T06:01:19.615Z,97018.53
2022-09-29T06:04:22.543Z,97026.28
2022-09-29T06:07:25.160Z,97028.22
2022-09-29T06:10:28.303Z,97019.94
2022-09-29T06:13:30.783Z,97019.75
2022-09-29T06:16:34.398Z,97020.37
2022-09-29T06:19:37.364Z,97021.53
2022-09-29T06:22:41.734Z,97019.75
2022-09-29T06:25:44.224Z,97012.31
2022-09-29T06:28:47.479Z,97015.97
2022-09-29T06:31:50.057Z,97004.63
2022-09-29T06:35:11.794Z,97035.37
2022-09-29T06:38:14.700Z,97036.31
2022-09-29T06:41:17.559Z,97035.78
2022-09-29T06:44:27.886Z,97043.53
2022-09-29T06:47:30.790Z,97046.03
2022-09-29T06:50:35.066Z,97044.75
2022-09-29T06:53:39.029Z,97048.09
2022-09-29T06:56:42.328Z,97048.19
2022-09-29T06:59:45.402Z,97034.63
2022-09-29T07:02:48.115Z,97058.09
2022-09-29T07:06:15.292Z,97068.47
2022-09-29T07:09:17.368Z,97072.00
2022-09-29T07:12:20.656Z,97079.13
2022-09-29T07:15:31.432Z,97083.78
2022-09-29T07:18:35.668Z,97071.69
2022-09-29T07:21:38.135Z,97089.69
2022-09-29T07:24:40.952Z,97086.03
2022-09-29T07:27:43.531Z,97091.03
2022-09-29T07:30:46.391Z,97067.13
2022-09-29T07:33:50.484Z,97076.28
2022-09-29T07:36:53.215Z,97084.16
2022-09-29T07:39:55.690Z,97092.47
2022-09-29T07:42:59.916Z,97075.44
2022-09-29T07:46:02.637Z,97094.06
2022-09-29T07:49:05.764Z,97093.88
2022-09-29T07:52:08.619Z,97099.72
2022-09-29T07:55:11.642Z,97115.75
2022-09-29T07:58:14.164Z,97115.88
2022-09-29T08:01:17.911Z,97106.41
2022-09-29T08:04:21.061Z,97118.44
2022-09-29T08:07:23.952Z,97112.84
2022-09-29T08:10:29.225Z,97120.19
2022-09-29T08:13:32.808Z,97130.00
2022-09-29T08:16:36.261Z,97137.31
2022-09-29T08:19:38.933Z,97140.56
2022-09-29T08:22:41.932Z,97150.06
2022-09-29T08:25:54.394Z,97149.97
2022-09-29T08:29:07.898Z,97147.06
2022-09-29T08:32:11.250Z,97144.03
2022-09-29T08:35:14.797Z,97146.62
2022-09-29T08:38:17.260Z,97150.59
2022-09-29T08:41:35.320Z,97129.34
2022-09-29T08:44:45.088Z,97139.59
2022-09-29T08:47:51.095Z,97142.37
2022-09-29T08:51:05.754Z,97135.59
2022-09-29T08:54:38.613Z,97068.72
2022-09-29T08:57:42.724Z,97159.53
2022-09-29T09:01:03.922Z,97158.63
2022-09-29T09:04:21.709Z,97157.75
2022-09-29T09:07:39.599Z,97155.81
2022-09-29T09:10:47.625Z,97147.66
2022-09-29T09:14:04.260Z,97153.97
2022-09-29T09:17:18.976Z,97156.50
2022-09-29T09:20:35.139Z,97166.78
2022-09-29T09:23:55.585Z,97170.56
2022-09-29T09:27:01.271Z,97176.66
2022-09-29T09:30:06.843Z,97171.09
2022-09-29T09:33:28.632Z,97175.06
2022-09-29T09:36:34.747Z,97169.44
2022-09-29T09:39:49.263Z,97178.53
2022-09-29T09:42:57.836Z,97110.00
2022-09-29T09:46:23.855Z,97172.91
2022-09-29T09:49:59.074Z,97186.94
2022-09-29T09:53:06.033Z,97188.63
2022-09-29T09:56:33.556Z,97197.84
2022-09-29T10:00:00.241Z,97204.44
2022-09-29T10:03:06.431Z,97210.81
2022-09-29T10:06:09.484Z,97212.66
2022-09-29T10:09:14.831Z,97215.38
2022-09-29T10:12:19.293Z,97206.00
2022-09-29T10:15:29.869Z,97198.16
2022-09-29T10:18:53.052Z,97201.34
2022-09-29T10:22:01.407Z,97193.38
2022-09-29T10:25:20.671Z,97207.44
2022-09-29T10:28:24.146Z,97198.31
2022-09-29T10:31:33.026Z,97202.88
2022-09-29T10:34:43.467Z,97194.63
2022-09-29T10:37:59.911Z,97207.84
2022-09-29T10:41:07.098Z,97222.38
2022-09-29T10:44:21.314Z,97219.84
2022-09-29T10:47:24.126Z,97213.59
2022-09-29T10:54:09.021Z,97213.31
2022-09-29T10:57:15.971Z,97217.44
2022-09-29T11:00:35.733Z,97218.13
2022-09-29T11:03:41.519Z,97202.38
2022-09-29T11:06:44.814Z,97229.91
2022-09-29T11:09:47.802Z,97237.62
2022-09-29T11:12:50.837Z,97240.53
2022-09-29T11:15:54.017Z,97232.59
2022-09-29T11:19:04.902Z,97227.00
2022-09-29T11:22:34.044Z,97241.06
2022-09-29T11:26:02.906Z,97233.03
2022-09-29T11:29:30.837Z,97233.50
2022-09-29T11:32:49.300Z,97211.50
2022-09-29T11:35:55.554Z,97215.91
2022-09-29T11:39:08.757Z,97214.50
2022-09-29T11:42:41.073Z,97224.97
2022-09-29T11:46:20.328Z,97223.97
2022-09-29T11:49:42.396Z,97212.31
2022-09-29T11:52:56.901Z,97223.66
2022-09-29T11:56:24.067Z,97223.69
2022-09-29T11:59:36.748Z,97233.16
2022-09-29T12:02:49.088Z,97235.88
2022-09-29T12:06:07.744Z,97233.75
2022-09-29T12:09:22.267Z,97238.03
2022-09-29T12:12:34.881Z,97244.19
2022-09-29T12:15:45.264Z,97247.16
2022-09-29T12:18:54.494Z,97248.28
2022-09-29T12:21:59.817Z,97248.19
2022-09-29T12:25:03.150Z,97239.16
2022-09-29T12:28:12.457Z,97253.56
2022-09-29T12:31:28.424Z,97235.47
2022-09-29T12:35:06.490Z,97252.78
2022-09-29T12:38:17.431Z,97257.69
2022-09-29T12:41:32.319Z,97261.03
2022-09-29T12:44:45.011Z,97264.44
2022-09-29T12:48:03.322Z,97267.75
2022-09-29T12:51:37.972Z,97261.81
2022-09-29T12:54:45.131Z,97254.97
2022-09-29T12:57:50.290Z,97249.69
2022-09-29T13:01:03.801Z,97245.34
2022-09-29T13:04:30.551Z,97241.53
2022-09-29T13:07:43.408Z,97250.28
2022-09-29T13:11:03.355Z,97247.28
2022-09-29T13:14:18.052Z,97250.00
2022-09-29T13:17:30.479Z,97255.03
2022-09-29T13:20:33.283Z,97261.38
2022-09-29T13:23:55.081Z,97265.34
2022-09-29T13:27:20.417Z,97265.00
2022-09-29T13:30:25.446Z,97269.38
2022-09-29T13:33:28.979Z,97268.16
2022-09-29T13:36:37.848Z,97269.53
2022-09-29T13:39:43.281Z,97265.00
2022-09-29T13:42:47.941Z,97270.66
2022-09-29T13:45:53.276Z,97272.66
2022-09-29T13:49:08.385Z,97273.66
2022-09-29T13:52:10.763Z,97265.53
2022-09-29T13:55:54.408Z,97267.22
2022-09-29T13:59:00.233Z,97261.78
2022-09-29T14:02:38.507Z,97264.19
2022-09-29T14:05:45.825Z,97268.12
2022-09-29T14:09:12.625Z,97280.44
2022-09-29T14:12:22.741Z,97287.25
2022-09-29T14:15:26.702Z,97236.13
2022-09-29T14:18:42.499Z,97280.41
2022-09-29T14:21:56.592Z,97278.91
2022-09-29T14:25:08.936Z,97286.97
2022-09-29T14:28:21.895Z,97284.53
2022-09-29T14:31:25.916Z,97286.78
2022-09-29T14:34:30.844Z,97294.87
2022-09-29T14:37:33.706Z,97307.94
2022-09-29T14:40:37.575Z,97301.16
2022-09-29T14:43:46.968Z,97304.72
2022-09-29T14:47:29.025Z,97310.37
2022-09-29T14:50:55.808Z,97302.75
2022-09-29T14:53:58.325Z,97312.50
2022-09-29T14:57:19.868Z,97317.75
2022-09-29T15:00:29.439Z,97310.25
2022-09-29T15:03:50.885Z,97331.56
2022-09-29T15:06:53.628Z,97295.94
2022-09-29T15:09:58.466Z,97328.22
2022-09-29T15:13:20.150Z,97340.78
2022-09-29T15:16:30.488Z,97330.44
2022-09-29T15:19:42.789Z,97334.09
2022-09-29T15:23:22.615Z,97345.31
2022-09-29T15:26:27.529Z,97347.50
2022-09-29T15:29:30.576Z,97345.28
2022-09-29T15:32:33.346Z,97355.50
2022-09-29T15:35:40.069Z,97342.53
2022-09-29T15:38:42.911Z,97336.09
2022-09-29T15:41:45.759Z,97347.03
2022-09-29T15:45:20.540Z,97347.19
2022-09-29T15:48:23.344Z,97349.37
2022-09-29T15:51:25.965Z,97346.72
2022-09-29T15:54:35.042Z,97354.66
2022-09-29T15:57:57.821Z,97356.28
2022-09-29T16:01:08.806Z,97320.03
2022-09-29T16:04:13.167Z,97351.28
2022-09-29T16:07:28.470Z,97356.50
2022-09-29T16:10:48.325Z,97359.25
2022-09-29T16:13:55.091Z,97375.47
2022-09-29T16:16:57.997Z,97327.06
2022-09-29T16:20:00.876Z,97376.03
2022-09-29T16:23:22.105Z,97382.00
2022-09-29T16:26:52.461Z,97387.16
2022-09-29T16:30:18.660Z,97382.56
2022-09-29T16:33:22.507Z,97372.81
2022-09-29T16:36:27.428Z,97387.50
2022-09-29T16:39:40.036Z,97402.31
2022-09-29T16:42:52.963Z,97402.63
2022-09-29T16:45:57.983Z,97381.16
2022-09-29T16:49:00.835Z,97376.72
2022-09-29T16:52:27.080Z,97378.84
2022-09-29T16:55:30.834Z,97382.75
2022-09-29T16:58:33.346Z,97387.59
2022-09-29T17:01:36.152Z,97383.69
2022-09-29T17:04:38.961Z,97385.09
2022-09-29T17:07:42.002Z,97391.12
2022-09-29T17:10:44.960Z,97402.00
2022-09-29T17:13:47.913Z,97397.34
2022-09-29T17:16:51.708Z,97398.84
2022-09-29T17:19:56.698Z,97392.28
2022-09-29T17:23:00.188Z,97395.72
2022-09-29T17:26:23.301Z,97394.97
2022-09-29T17:29:26.214Z,97387.72
2022-09-29T17:32:29.060Z,97388.16
2022-09-29T17:35:37.931Z,97378.94
2022-09-29T17:38:42.483Z,97388.72
2022-09-29T17:41:46.151Z,97397.34
2022-09-29T17:44:49.154Z,97400.53
2022-09-29T17:47:51.738Z,97414.72
2022-09-29T17:50:56.553Z,97415.78
2022-09-29T17:54:00.390Z,97407.03
2022-09-29T17:57:03.532Z,97409.16
2022-09-29T18:00:39.618Z,97413.88
2022-09-29T18:03:42.511Z,97429.38
2022-09-29T18:06:45.210Z,97435.94
2022-09-29T18:09:48.026Z,97448.44
2022-09-29T18:12:50.656Z,97432.00
2022-09-29T18:15:57.888Z,97437.22
2022-09-29T18:19:00.602Z,97432.84
2022-09-29T18:22:06.379Z,97429.12
2022-09-29T18:25:12.034Z,97445.88
2022-09-29T18:28:16.120Z,97437.12
2022-09-29T18:31:27.866Z,97437.12
2022-09-29T18:34:34.038Z,97446.91
2022-09-29T18:37:37.605Z,97443.53
2022-09-29T18:40:41.822Z,97445.28
2022-09-29T18:43:44.412Z,97439.78
2022-09-29T18:46:47.628Z,97449.25
2022-09-29T18:49:50.225Z,97447.41
2022-09-29T18:52:54.027Z,97453.84
2022-09-29T18:56:00.937Z,97454.87
2022-09-29T18:59:07.684Z,97450.84
2022-09-29T19:02:12.839Z,97466.53
2022-09-29T19:05:20.986Z,97479.09
2022-09-29T19:08:24.184Z,97478.16
2022-09-29T19:11:27.414Z,97483.56
2022-09-29T19:14:34.305Z,97496.25
2022-09-29T19:17:37.110Z,97500.00
2022-09-29T19:20:40.012Z,97509.72
2022-09-29T19:23:43.303Z,97509.72
2022-09-29T19:26:46.391Z,97513.28
2022-09-29T19:29:58.492Z,97503.97
2022-09-29T19:33:07.472Z,97512.41
2022-09-29T19:36:14.951Z,97517.81
2022-09-29T19:39:17.875Z,97510.13
2022-09-29T19:42:20.756Z,97517.22
2022-09-29T19:45:23.267Z,97526.28
2022-09-29T19:48:26.026Z,97528.97
2022-09-29T19:51:47.651Z,97530.00
2022-09-29T19:54:50.588Z,97532.59
2022-09-29T19:57:53.080Z,97528.06
2022-09-29T20:00:57.401Z,97528.97
2022-09-29T20:04:00.318Z,97531.53
2022-09-29T20:07:04.269Z,97524.25
2022-09-29T20:10:08.576Z,97524.13
2022-09-29T20:13:13.965Z,97531.09
2022-09-29T20:16:17.349Z,97518.44
2022-09-29T20:19:21.114Z,97516.75
2022-09-29T20:22:26.579Z,97506.44
2022-09-29T20:25:29.227Z,97532.03
2022-09-29T20:28:32.012Z,97529.28
2022-09-29T20:31:38.634Z,97519.38
2022-09-29T20:34:41.493Z,97507.41
2022-09-29T20:37:44.020Z,97533.19
2022-09-29T20:40:48.682Z,97544.16
2022-09-29T20:43:54.499Z,97545.31
2022-09-29T20:46:58.287Z,97534.31
2022-09-29T20:50:00.948Z,97553.47
2022-09-29T20:53:05.041Z,97545.78
2022-09-29T20:56:16.286Z,97552.63
2022-09-29T20:59:21.032Z,97553.47
2022-09-29T21:02:23.847Z,97567.72
2022-09-29T21:05:27.036Z,97543.00
2022-09-29T21:08:29.807Z,97547.22
2022-09-29T21:11:38.205Z,97562.63
2022-09-29T21:14:41.342Z,97566.28
2022-09-29T21:17:44.230Z,97565.44
2022-09-29T21:20:46.874Z,97569.16
2022-09-29T21:23:53.499Z,97578.31
2022-09-29T21:26:56.089Z,97580.31
2022-09-29T21:29:58.915Z,97583.09
2022-09-29T21:33:01.519Z,97571.03
2022-09-29T21:36:06.418Z,97571.84
2022-09-29T21:39:09.272Z,97586.94
2022-09-29T21:42:12.125Z,97588.56
2022-09-29T21:45:14.759Z,97587.53
2022-09-29T21:48:17.566Z,97590.03
2022-09-29T21:51:29.482Z,97597.94
2022-09-29T21:54:33.922Z,97594.31
2022-09-29T21:57:38.435Z,97601.16
2022-09-29T22:00:41.280Z,97614.78
2022-09-29T22:03:45.932Z,97659.22
2022-09-29T22:06:48.680Z,97661.06
2022-09-29T22:09:51.483Z,97689.47
2022-09-29T22:12:54.065Z,97677.75
2022-09-29T22:16:03.691Z,97658.88
2022-09-29T22:19:22.401Z,97658.25
2022-09-29T22:22:26.057Z,97648.19
2022-09-29T22:25:32.885Z,97640.88
2022-09-29T22:28:36.835Z,97626.81
2022-09-29T22:31:40.456Z,97578.34
2022-09-29T22:34:43.666Z,97574.31
2022-09-29T22:37:46.592Z,97590.00
2022-09-29T22:40:50.186Z,97559.66
2022-09-29T22:43:56.489Z,97569.34
2022-09-29T22:46:59.442Z,97581.19
2022-09-29T22:50:02.200Z,97581.34
2022-09-29T22:53:05.515Z,97590.19
2022-09-29T22:56:19.985Z,97599.94
2022-09-29T22:59:23.001Z,97592.81
2022-09-29T23:02:26.099Z,97596.97
2022-09-29T23:05:29.017Z,97595.06
2022-09-29T23:08:32.607Z,97593.16
2022-09-29T23:11:36.101Z,97588.81
2022-09-29T23:14:38.743Z,97579.19
2022-09-29T23:17:41.611Z,97576.09
2022-09-29T23:20:44.530Z,97575.72
2022-09-29T23:23:51.254Z,97551.66
2022-09-29T23:26:53.907Z,97565.03
2022-09-29T23:29:56.784Z,97583.78
2022-09-29T23:32:59.380Z,97580.41
2022-09-29T23:36:10.907Z,97583.34
2022-09-29T23:39:14.211Z,97607.50
2022-09-29T23:42:17.799Z,97667.63
2022-09-29T23:45:20.739Z,97676.28
2022-09-29T23:48:24.298Z,97652.81
2022-09-29T23:51:28.233Z,97642.50
2022-09-29T23:54:31.427Z,97690.69
2022-09-29T23:57:33.933Z,97701.28
